Time;durP1;ratioP1;P1;durP2;ratioP2;P2;SDS_P1;SDS_P2;PMS_P1;PMS_P2;Temp;Humidity;BMP_temperature;BMP_pressure;BME280_temperature;BME280_humidity;BME280_pressure;Samples;Min_cycle;Max_cycle;Signal;HPM_P1;HPM_P2
2022/11/21 00:01:36;;;;;;;60.75;39.67;;;1.40;99.90;;;;;;5056346;28;20056;-67
2022/11/21 00:04:02;;;;;;;66.10;40.38;;;1.40;99.90;;;;;;5063776;28;20087;-68
2022/11/21 00:06:28;;;;;;;66.03;41.65;;;1.40;99.90;;;;;;5070425;28;20106;-68
2022/11/21 00:08:54;;;;;;;61.53;39.83;;;1.40;99.90;;;;;;5065336;28;20052;-68
2022/11/21 00:11:20;;;;;;;66.57;41.35;;;1.40;99.90;;;;;;5070352;28;20045;-67
2022/11/21 00:13:46;;;;;;;57.60;38.72;;;1.40;99.90;;;;;;5070160;28;20045;-67
2022/11/21 00:16:13;;;;;;;74.70;42.58;;;1.40;99.90;;;;;;5070702;28;20048;-67
2022/11/21 00:18:39;;;;;;;66.05;39.38;;;1.40;99.90;;;;;;5067345;28;20048;-67
2022/11/21 00:21:07;;;;;;;54.88;36.78;;;1.40;99.90;;;;;;5068961;28;20064;-67
2022/11/21 00:23:33;;;;;;;62.33;39.33;;;1.40;99.90;;;;;;5069647;28;20052;-67
2022/11/21 00:26:03;;;;;;;52.97;36.22;;;1.40;99.90;;;;;;5071512;28;20271;-67
2022/11/21 00:28:29;;;;;;;62.55;39.67;;;1.40;99.90;;;;;;5070629;28;20406;-67
2022/11/21 00:30:55;;;;;;;59.15;39.22;;;1.40;99.90;;;;;;5068253;28;20053;-68
2022/11/21 00:33:20;;;;;;;61.47;39.03;;;1.40;99.90;;;;;;5068559;28;20075;-68
2022/11/21 00:35:46;;;;;;;33.22;18.13;;;1.40;99.90;;;;;;5065840;28;20040;-67
2022/11/21 00:38:12;;;;;;;62.58;39.53;;;1.40;99.90;;;;;;5070213;28;20510;-68
2022/11/21 00:40:38;;;;;;;38.45;16.00;;;1.40;99.90;;;;;;5070098;28;20048;-68
2022/11/21 00:43:04;;;;;;;61.42;40.65;;;1.30;99.90;;;;;;5069660;28;20049;-67
2022/11/21 00:45:29;;;;;;;64.32;39.47;;;1.30;99.90;;;;;;5069374;28;20048;-67
2022/11/21 00:47:55;;;;;;;34.95;13.60;;;1.30;99.90;;;;;;5069425;28;20084;-67
2022/11/21 00:50:20;;;;;;;67.10;40.75;;;1.30;99.90;;;;;;5067852;28;20040;-67
2022/11/21 00:52:46;;;;;;;57.63;39.50;;;1.30;99.90;;;;;;5065532;28;20444;-67
2022/11/21 00:55:13;;;;;;;61.08;40.45;;;1.30;99.90;;;;;;5066920;28;20049;-67
2022/11/21 00:57:38;;;;;;;61.50;38.70;;;1.30;99.90;;;;;;5069717;28;20446;-67
2022/11/21 01:00:04;;;;;;;63.90;42.85;;;1.30;99.90;;;;;;5069501;28;20087;-67
2022/11/21 01:02:31;;;;;;;58.92;41.03;;;1.30;99.90;;;;;;5068881;28;20452;-67
2022/11/21 01:04:57;;;;;;;63.60;41.33;;;1.30;99.90;;;;;;5068766;28;20032;-67
2022/11/21 01:07:23;;;;;;;64.65;39.05;;;1.30;99.90;;;;;;5066877;28;20101;-67
2022/11/21 01:09:49;;;;;;;56.72;38.60;;;1.30;99.90;;;;;;5076263;28;20119;-67
2022/11/21 01:12:14;;;;;;;60.35;41.35;;;1.30;99.90;;;;;;5087401;28;20127;-67
2022/11/21 01:14:40;;;;;;;62.83;38.50;;;1.30;99.90;;;;;;5085658;28;20079;-67
2022/11/21 01:17:05;;;;;;;66.38;40.50;;;1.20;99.90;;;;;;5087450;28;20726;-67
2022/11/21 01:19:31;;;;;;;56.83;37.63;;;1.20;99.90;;;;;;5075242;28;20049;-67
2022/11/21 01:21:57;;;;;;;55.53;37.83;;;1.20;99.90;;;;;;5062399;28;20048;-67
2022/11/21 01:24:22;;;;;;;60.08;40.40;;;1.20;99.90;;;;;;5064591;28;20152;-67
2022/11/21 01:26:49;;;;;;;34.63;16.27;;;1.20;99.90;;;;;;5058140;28;20050;-67
2022/11/21 01:29:16;;;;;;;60.55;39.88;;;1.10;99.90;;;;;;5050161;28;20149;-67
2022/11/21 01:31:42;;;;;;;59.30;39.25;;;1.10;99.90;;;;;;5079263;28;20090;-67
2022/11/21 01:34:08;;;;;;;56.08;38.42;;;1.10;99.90;;;;;;5075061;28;20036;-67
2022/11/21 01:36:33;;;;;;;65.07;41.28;;;1.10;99.90;;;;;;5083251;28;20110;-67
2022/11/21 01:39:02;;;;;;;55.90;39.13;;;1.10;99.90;;;;;;5067540;28;20040;-67
2022/11/21 01:41:34;;;;;;;60.45;40.20;;;1.10;99.90;;;;;;5065644;28;20470;-67
2022/11/21 01:44:00;;;;;;;58.75;38.65;;;1.10;99.90;;;;;;5068677;28;20473;-67
2022/11/21 01:46:26;;;;;;;61.67;40.85;;;1.10;99.90;;;;;;5069048;28;20493;-67
2022/11/21 01:49:04;;;;;;;62.50;40.58;;;1.00;99.90;;;;;;5066954;28;20036;-66
2022/11/21 01:51:51;;;;;;;21.50;11.85;;;1.00;99.90;;;;;;5071316;28;20113;-66
2022/11/21 01:54:49;;;;;;;62.58;39.40;;;0.90;99.90;;;;;;5067805;28;20613;-66
2022/11/21 01:57:27;;;;;;;57.45;39.08;;;0.90;99.90;;;;;;5060979;28;20055;-66
2022/11/21 02:00:04;;;;;;;69.07;40.63;;;0.80;99.90;;;;;;5064665;28;20080;-66
2022/11/21 02:02:33;;;;;;;54.47;38.35;;;0.80;99.90;;;;;;5067488;28;20041;-66
2022/11/21 02:05:01;;;;;;;55.13;38.65;;;0.70;99.90;;;;;;5068083;28;20052;-66
2022/11/21 02:07:31;;;;;;;58.13;37.92;;;0.70;99.90;;;;;;5076390;28;20062;-66
2022/11/21 02:10:00;;;;;;;56.70;37.67;;;0.60;99.90;;;;;;5073782;28;20501;-66
2022/11/21 02:12:37;;;;;;;62.45;38.13;;;0.60;99.90;;;;;;5066670;28;20048;-66
2022/11/21 02:15:03;;;;;;;56.17;39.35;;;0.50;99.90;;;;;;5064106;28;20457;-66
2022/11/21 02:17:29;;;;;;;55.95;35.50;;;0.50;99.90;;;;;;5067923;28;20048;-66
2022/11/21 02:20:00;;;;;;;64.45;40.08;;;0.40;99.90;;;;;;5067514;28;20056;-66
2022/11/21 02:22:41;;;;;;;59.10;40.05;;;0.40;99.90;;;;;;5067795;28;20041;-66
2022/11/21 02:25:11;;;;;;;58.80;37.75;;;0.40;99.90;;;;;;5060518;28;20494;-66
2022/11/21 02:27:37;;;;;;;27.63;13.15;;;0.30;99.90;;;;;;5062027;28;20056;-66
2022/11/21 02:30:07;;;;;;;58.60;39.10;;;0.20;99.90;;;;;;5062059;28;20032;-66
2022/11/21 02:32:38;;;;;;;67.40;42.00;;;0.20;99.90;;;;;;5065987;28;20140;-66
2022/11/21 02:35:04;;;;;;;59.13;38.60;;;0.20;99.90;;;;;;5067302;28;20052;-66
2022/11/21 02:37:32;;;;;;;59.88;38.03;;;0.10;99.90;;;;;;5067772;28;20102;-66
2022/11/21 02:40:01;;;;;;;29.10;14.65;;;0.10;99.90;;;;;;5066769;28;20048;-66
2022/11/21 02:42:29;;;;;;;59.53;37.95;;;0.00;99.90;;;;;;5066154;28;20059;-66
2022/11/21 02:44:59;;;;;;;60.87;39.93;;;0.00;99.90;;;;;;5067325;28;20385;-66
2022/11/21 02:47:25;;;;;;;63.10;40.17;;;0.00;99.90;;;;;;5063235;28;20790;-66
2022/11/21 02:50:25;;;;;;;29.10;14.20;;;0.00;99.90;;;;;;5066682;28;20040;-66
2022/11/21 02:52:51;;;;;;;60.20;39.72;;;-0.10;99.90;;;;;;5059448;28;20076;-66
2022/11/21 02:55:17;;;;;;;57.95;38.47;;;-0.10;99.90;;;;;;5064547;28;20036;-65
2022/11/21 02:57:42;;;;;;;76.35;44.47;;;-0.10;99.90;;;;;;5067047;28;20697;-66
2022/11/21 03:00:10;;;;;;;67.00;42.13;;;-0.10;99.90;;;;;;5065809;28;20584;-66
2022/11/21 03:02:36;;;;;;;67.70;41.83;;;-0.20;99.90;;;;;;5062336;28;20619;-66
2022/11/21 03:05:05;;;;;;;62.47;40.28;;;-0.20;99.90;;;;;;5064032;28;20041;-65
2022/11/21 03:07:31;;;;;;;66.70;43.15;;;-0.30;99.90;;;;;;5049738;28;20053;-66
2022/11/21 03:09:56;;;;;;;66.22;41.85;;;-0.30;99.90;;;;;;5066660;28;20086;-65
2022/11/21 03:12:22;;;;;;;62.65;41.45;;;-0.30;99.90;;;;;;5067391;28;20398;-66
2022/11/21 03:14:48;;;;;;;64.63;41.83;;;-0.30;99.90;;;;;;5066744;28;20067;-66
2022/11/21 03:17:13;;;;;;;69.35;41.15;;;-0.40;99.90;;;;;;5066294;28;20041;-66
2022/11/21 03:19:39;;;;;;;66.13;41.88;;;-0.40;99.90;;;;;;5065711;28;20052;-66
2022/11/21 03:22:05;;;;;;;62.97;40.75;;;-0.40;99.90;;;;;;5066562;28;20133;-66
2022/11/21 03:24:31;;;;;;;60.92;41.50;;;-0.50;99.90;;;;;;5066794;28;20047;-66
2022/11/21 03:26:56;;;;;;;61.42;40.45;;;-0.50;99.90;;;;;;5067228;28;20095;-66
2022/11/21 03:29:22;;;;;;;60.65;41.85;;;-0.50;99.90;;;;;;5066177;28;20101;-66
2022/11/21 03:31:48;;;;;;;65.35;42.63;;;-0.60;99.90;;;;;;5065348;28;20043;-66
2022/11/21 03:34:13;;;;;;;66.10;41.55;;;-0.60;99.90;;;;;;5059459;28;20037;-65
2022/11/21 03:36:39;;;;;;;65.40;43.05;;;-0.60;99.90;;;;;;5066686;28;20040;-65
2022/11/21 03:39:05;;;;;;;80.60;43.67;;;-0.60;99.90;;;;;;5070900;28;20491;-65
2022/11/21 03:41:30;;;;;;;69.38;43.47;;;-0.60;99.90;;;;;;5086771;28;20051;-65
2022/11/21 03:44:05;;;;;;;68.72;43.30;;;-0.70;99.90;;;;;;5059086;28;20105;-66
2022/11/21 03:46:33;;;;;;;64.15;42.45;;;-0.70;99.90;;;;;;5070617;28;20059;-65
2022/11/21 03:48:59;;;;;;;69.85;41.90;;;-0.70;99.90;;;;;;5062500;28;20406;-65
2022/11/21 03:51:25;;;;;;;65.07;43.85;;;-0.80;99.90;;;;;;5064327;28;20040;-66
2022/11/21 03:53:51;;;;;;;70.78;45.38;;;-0.70;99.90;;;;;;5069554;28;20120;-65
2022/11/21 03:56:17;;;;;;;76.90;43.60;;;-0.80;99.90;;;;;;5068536;28;20524;-65
2022/11/21 03:58:43;;;;;;;69.60;43.15;;;-0.80;99.90;;;;;;5064480;28;20048;-65
2022/11/21 04:01:11;;;;;;;68.45;42.35;;;-0.80;99.90;;;;;;5069797;28;20417;-65
2022/11/21 04:03:38;;;;;;;76.05;44.33;;;-0.80;99.90;;;;;;5069942;28;20052;-65
2022/11/21 04:06:03;;;;;;;32.25;11.38;;;-0.90;99.90;;;;;;5068392;28;20078;-66
2022/11/21 04:08:29;;;;;;;72.35;45.92;;;-0.90;99.90;;;;;;5070297;28;20044;-66
2022/11/21 04:10:54;;;;;;;64.65;42.63;;;-0.90;99.90;;;;;;5069890;28;20074;-65
2022/11/21 04:13:21;;;;;;;72.50;44.55;;;-0.90;99.90;;;;;;5070152;28;20052;-65
2022/11/21 04:15:47;;;;;;;66.63;44.22;;;-0.90;99.90;;;;;;5066072;28;20546;-65
2022/11/21 04:18:13;;;;;;;70.00;44.50;;;-1.00;99.90;;;;;;5069507;28;20123;-66
2022/11/21 04:20:39;;;;;;;65.60;43.88;;;-1.00;99.90;;;;;;5069390;28;20155;-65
2022/11/21 04:23:05;;;;;;;71.55;46.42;;;-1.00;99.90;;;;;;5065476;28;20098;-65
2022/11/21 04:25:31;;;;;;;74.20;45.30;;;-1.00;99.90;;;;;;5070126;28;20048;-66
2022/11/21 04:27:58;;;;;;;72.75;43.47;;;-1.00;99.90;;;;;;5069561;28;20159;-66
2022/11/21 04:30:24;;;;;;;68.20;42.85;;;-1.10;99.90;;;;;;5067403;28;20071;-65
2022/11/21 04:32:51;;;;;;;71.75;42.28;;;-1.10;99.90;;;;;;5070228;28;20048;-66
2022/11/21 04:35:17;;;;;;;65.45;41.67;;;-1.10;99.90;;;;;;5069168;28;20044;-65
2022/11/21 04:37:43;;;;;;;69.35;44.40;;;-1.20;99.90;;;;;;5064175;28;20063;-66
2022/11/21 04:40:09;;;;;;;76.43;46.17;;;-1.20;99.90;;;;;;5066237;28;20089;-65
2022/11/21 04:42:35;;;;;;;70.35;44.40;;;-1.20;99.90;;;;;;5084247;28;20044;-65
2022/11/21 04:45:00;;;;;;;72.68;44.00;;;-1.20;99.90;;;;;;5069494;28;20068;-65
2022/11/21 04:47:26;;;;;;;76.25;46.50;;;-1.30;99.90;;;;;;5068791;28;20397;-66
2022/11/21 04:49:51;;;;;;;71.85;43.40;;;-1.30;99.90;;;;;;5068095;28;20095;-66
2022/11/21 04:52:17;;;;;;;77.38;47.55;;;-1.30;99.90;;;;;;5069405;28;20043;-65
2022/11/21 04:54:43;;;;;;;77.45;47.40;;;-1.30;99.90;;;;;;5065361;28;20149;-65
2022/11/21 04:57:09;;;;;;;74.05;47.35;;;-1.30;99.90;;;;;;5069887;28;20440;-66
2022/11/21 04:59:34;;;;;;;79.53;47.17;;;-1.30;99.90;;;;;;5068517;28;20041;-65
2022/11/21 05:02:02;;;;;;;78.30;47.97;;;-1.30;99.90;;;;;;5069321;28;20854;-65
2022/11/21 05:04:28;;;;;;;81.95;48.45;;;-1.30;99.90;;;;;;5069168;28;20518;-66
2022/11/21 05:06:54;;;;;;;76.50;47.70;;;-1.30;99.90;;;;;;5068589;28;20045;-66
2022/11/21 05:09:19;;;;;;;78.45;48.00;;;-1.30;99.90;;;;;;5069223;28;20040;-66
2022/11/21 05:14:29;;;;;;;84.82;49.72;;;-1.30;99.90;;;;;;5056876;28;20127;-65
2022/11/21 05:16:55;;;;;;;79.32;46.53;;;-1.30;99.90;;;;;;5057303;28;20115;-65
2022/11/21 05:19:21;;;;;;;75.07;48.42;;;-1.40;99.90;;;;;;5066205;28;20497;-66
2022/11/21 05:21:47;;;;;;;75.32;46.22;;;-1.40;99.90;;;;;;5080797;28;20040;-65
2022/11/21 05:24:14;;;;;;;73.82;45.70;;;-1.40;99.90;;;;;;5071551;28;20108;-65
2022/11/21 05:26:40;;;;;;;75.40;46.80;;;-1.40;99.90;;;;;;5063375;28;20707;-65
2022/11/21 05:29:06;;;;;;;73.43;46.10;;;-1.40;99.90;;;;;;5064895;28;20040;-65
2022/11/21 05:31:31;;;;;;;81.15;49.30;;;-1.50;99.90;;;;;;5068538;28;20154;-65
2022/11/21 05:33:57;;;;;;;79.22;47.88;;;-1.50;99.90;;;;;;5068295;28;20457;-65
2022/11/21 05:36:22;;;;;;;22.30;8.35;;;-1.50;99.90;;;;;;5068328;28;20044;-65
2022/11/21 05:38:48;;;;;;;75.45;49.10;;;-1.50;99.90;;;;;;5068435;28;20055;-65
2022/11/21 05:41:14;;;;;;;83.05;49.90;;;-1.60;99.90;;;;;;5068416;28;20041;-65
2022/11/21 05:43:46;;;;;;;77.47;47.40;;;-1.50;99.90;;;;;;5065431;28;20037;-65
2022/11/21 05:46:22;;;;;;;83.38;50.05;;;-1.60;99.90;;;;;;5068690;28;20125;-65
2022/11/21 05:48:49;;;;;;;79.63;50.53;;;-1.50;99.90;;;;;;5068157;28;20050;-65
2022/11/21 05:51:16;;;;;;;84.47;49.05;;;-1.60;99.90;;;;;;5067973;28;20102;-66
2022/11/21 05:53:42;;;;;;;87.25;52.22;;;-1.60;99.90;;;;;;5063978;28;20052;-66
2022/11/21 05:56:16;;;;;;;85.43;50.95;;;-1.60;99.90;;;;;;5068049;28;20045;-65
2022/11/21 05:58:43;;;;;;;89.85;50.97;;;-1.60;99.90;;;;;;5067539;28;20047;-65
2022/11/21 06:01:10;;;;;;;85.75;52.08;;;-1.60;99.90;;;;;;5064287;28;20048;-65
2022/11/21 06:03:39;;;;;;;93.13;53.83;;;-1.60;99.90;;;;;;5067288;28;20105;-65
2022/11/21 06:06:11;;;;;;;82.60;49.70;;;-1.60;99.90;;;;;;5067904;28;20512;-65
2022/11/21 06:08:42;;;;;;;85.05;51.13;;;-1.70;99.90;;;;;;5066937;28;20124;-65
2022/11/21 06:11:10;;;;;;;86.60;50.35;;;-1.70;99.90;;;;;;5067600;28;20040;-65
2022/11/21 06:13:37;;;;;;;84.38;52.65;;;-1.70;99.90;;;;;;5067744;28;20041;-66
2022/11/21 06:16:12;;;;;;;88.68;55.80;;;-1.70;99.90;;;;;;5068225;28;20404;-65
2022/11/21 06:18:40;;;;;;;26.27;13.63;;;-1.70;99.90;;;;;;5066044;28;20040;-65
2022/11/21 06:21:08;;;;;;;92.38;54.83;;;-1.80;99.90;;;;;;5069441;28;20573;-66
2022/11/21 06:23:35;;;;;;;97.65;60.53;;;-1.70;99.90;;;;;;5059779;28;20094;-66
2022/11/21 06:26:03;;;;;;;113.78;63.72;;;-1.70;99.90;;;;;;5073448;28;20044;-65
2022/11/21 06:28:38;;;;;;;105.15;61.75;;;-1.70;99.90;;;;;;5074291;28;20048;-65
2022/11/21 06:31:09;;;;;;;95.57;57.25;;;-1.60;99.90;;;;;;5074283;28;20158;-66
2022/11/21 06:33:36;;;;;;;87.35;55.35;;;-1.60;99.90;;;;;;5070208;28;20040;-65
2022/11/21 06:36:07;;;;;;;92.22;51.85;;;-1.70;99.90;;;;;;5077936;28;20040;-66
2022/11/21 06:38:33;;;;;;;80.78;48.70;;;-1.70;99.90;;;;;;5079512;28;20053;-65
2022/11/21 06:41:29;;;;;;;87.00;51.92;;;-1.80;99.90;;;;;;5076783;28;20072;-66
2022/11/21 06:43:54;;;;;;;82.78;51.30;;;-1.80;99.90;;;;;;5057706;28;20044;-65
2022/11/21 06:46:20;;;;;;;84.30;48.17;;;-1.90;99.90;;;;;;5067843;28;20051;-66
2022/11/21 06:48:45;;;;;;;76.03;45.17;;;-2.10;99.90;;;;;;5067167;28;20044;-66
2022/11/21 06:51:12;;;;;;;91.00;52.30;;;-2.20;99.90;;;;;;5058775;28;20080;-66
2022/11/21 06:53:38;;;;;;;85.43;50.20;;;-2.20;99.90;;;;;;5047765;28;20045;-65
2022/11/21 06:56:04;;;;;;;85.07;49.30;;;-2.20;99.90;;;;;;5085250;28;20177;-65
2022/11/21 06:58:30;;;;;;;94.57;53.45;;;-2.20;99.90;;;;;;5083917;28;20047;-66
2022/11/21 07:00:56;;;;;;;94.72;52.65;;;-2.20;99.90;;;;;;5075088;28;20044;-65
2022/11/21 07:03:22;;;;;;;91.82;53.15;;;-2.10;99.90;;;;;;5069496;28;20040;-65
2022/11/21 07:05:48;;;;;;;106.00;60.08;;;-2.10;99.90;;;;;;5075529;28;20032;-65
2022/11/21 07:08:14;;;;;;;104.15;61.85;;;-2.10;99.90;;;;;;5072186;28;20507;-66
2022/11/21 07:10:40;;;;;;;95.00;57.80;;;-2.00;99.90;;;;;;5079263;28;20124;-65
2022/11/21 07:13:21;;;;;;;98.22;57.17;;;-2.00;99.90;;;;;;5084540;28;20107;-65
2022/11/21 07:15:49;;;;;;;85.72;54.65;;;-2.00;99.90;;;;;;5066406;28;20454;-65
2022/11/21 07:18:15;;;;;;;20.05;12.80;;;-2.00;99.90;;;;;;5082033;28;20052;-65
2022/11/21 07:20:40;;;;;;;102.70;60.67;;;-2.00;99.90;;;;;;5065042;28;20672;-66
2022/11/21 07:23:07;;;;;;;110.43;61.10;;;-2.00;99.90;;;;;;5084903;28;20040;-65
2022/11/21 07:25:33;;;;;;;91.93;57.53;;;-2.00;99.90;;;;;;5067005;28;20528;-65
2022/11/21 07:28:00;;;;;;;102.72;58.35;;;-2.00;99.90;;;;;;5066733;28;20160;-65
2022/11/21 07:30:26;;;;;;;89.28;55.33;;;-2.00;99.90;;;;;;5066053;28;20046;-66
2022/11/21 07:32:59;;;;;;;88.80;54.78;;;-2.00;99.90;;;;;;5071472;28;20045;-66
2022/11/21 07:35:25;;;;;;;105.47;61.05;;;-2.00;99.90;;;;;;5068380;28;20056;-66
2022/11/21 07:37:51;;;;;;;31.08;13.98;;;-1.90;99.90;;;;;;5065876;28;20036;-65
2022/11/21 07:40:17;;;;;;;102.32;59.63;;;-1.90;99.90;;;;;;5078046;28;20044;-66
2022/11/21 07:42:43;;;;;;;108.45;64.57;;;-1.90;99.90;;;;;;5087267;28;20050;-66
2022/11/21 07:45:09;;;;;;;111.90;64.50;;;-1.80;99.90;;;;;;5074472;28;20041;-66
2022/11/21 07:47:35;;;;;;;114.50;65.15;;;-1.80;99.90;;;;;;5066275;28;20520;-65
2022/11/21 07:50:00;;;;;;;101.32;60.83;;;-1.80;99.90;;;;;;5084999;28;20040;-66
2022/11/21 07:52:29;;;;;;;103.03;60.03;;;-1.80;99.90;;;;;;5071493;28;20064;-65
2022/11/21 07:54:55;;;;;;;100.90;59.65;;;-1.80;99.90;;;;;;5082996;28;20048;-66
2022/11/21 07:57:20;;;;;;;108.32;59.92;;;-1.80;99.90;;;;;;5070610;28;20048;-65
2022/11/21 07:59:46;;;;;;;98.20;59.95;;;-1.80;99.90;;;;;;5077632;28;20428;-65
2022/11/21 08:02:41;;;;;;;102.68;59.05;;;-1.80;99.90;;;;;;5070425;28;20499;-65
2022/11/21 08:05:07;;;;;;;107.75;61.30;;;-1.70;99.90;;;;;;5054061;28;20067;-66
2022/11/21 08:07:33;;;;;;;98.55;61.45;;;-1.70;99.90;;;;;;5068659;28;20041;-66
2022/11/21 08:10:00;;;;;;;104.97;60.95;;;-1.70;99.90;;;;;;5062374;28;20059;-66
2022/11/21 08:12:25;;;;;;;101.10;61.55;;;-1.60;99.90;;;;;;5061643;28;20041;-66
2022/11/21 08:14:51;;;;;;;100.97;61.50;;;-1.60;99.90;;;;;;5078786;28;20042;-65
2022/11/21 08:17:17;;;;;;;104.95;67.18;;;-1.60;99.90;;;;;;5077435;28;20044;-65
2022/11/21 08:19:42;;;;;;;117.35;67.97;;;-1.50;99.90;;;;;;5068868;28;20032;-66
2022/11/21 08:22:08;;;;;;;112.55;64.80;;;-1.50;99.90;;;;;;5069277;28;20124;-65
2022/11/21 08:24:34;;;;;;;88.95;54.40;;;-1.50;99.90;;;;;;5054503;28;20122;-66
2022/11/21 08:26:59;;;;;;;103.32;62.70;;;-1.40;99.90;;;;;;5059935;28;20076;-65
2022/11/21 08:29:25;;;;;;;110.93;65.30;;;-1.40;99.90;;;;;;5072579;28;20754;-66
2022/11/21 08:31:51;;;;;;;107.25;66.60;;;-1.40;99.90;;;;;;5060023;28;20060;-66
2022/11/21 08:34:17;;;;;;;28.40;12.90;;;-1.40;99.90;;;;;;5070977;28;20040;-66
2022/11/21 08:36:42;;;;;;;30.50;13.65;;;-1.40;99.90;;;;;;5073814;28;20135;-66
2022/11/21 08:39:08;;;;;;;30.35;13.77;;;-1.40;99.90;;;;;;5072157;28;20052;-66
2022/11/21 08:44:19;;;;;;;106.25;61.25;;;-1.40;99.90;;;;;;5070190;28;20787;-66
2022/11/21 08:46:45;;;;;;;109.38;64.18;;;-1.30;99.90;;;;;;5075628;28;20048;-66
2022/11/21 08:49:10;;;;;;;101.78;61.72;;;-1.30;99.90;;;;;;5073687;28;20040;-66
2022/11/21 08:51:36;;;;;;;110.15;65.63;;;-1.20;99.90;;;;;;5065574;28;20418;-65
2022/11/21 08:54:02;;;;;;;114.35;63.95;;;-1.10;99.90;;;;;;5072043;28;20072;-66
2022/11/21 08:56:28;;;;;;;109.60;68.43;;;-1.10;99.90;;;;;;5075186;28;20054;-66
2022/11/21 08:58:54;;;;;;;110.43;68.65;;;-1.00;99.90;;;;;;5077531;28;20094;-66
2022/11/21 09:01:20;;;;;;;110.47;66.57;;;-1.00;99.90;;;;;;5063650;28;20095;-66
2022/11/21 09:03:46;;;;;;;117.63;66.57;;;-0.90;99.90;;;;;;5073943;28;20041;-66
2022/11/21 09:06:12;;;;;;;116.55;66.05;;;-0.90;99.90;;;;;;5063407;28;20036;-66
2022/11/21 09:08:38;;;;;;;23.30;12.60;;;-0.80;99.90;;;;;;5075704;28;20438;-66
2022/11/21 09:11:05;;;;;;;127.82;71.40;;;-0.70;99.90;;;;;;5060550;28;20776;-66
2022/11/21 09:13:31;;;;;;;138.35;88.32;;;-0.60;99.90;;;;;;5059460;28;20048;-65
2022/11/21 09:19:02;;;;;;;104.97;69.55;;;-0.30;99.90;;;;;;5070106;28;20135;-66
2022/11/21 09:21:27;;;;;;;123.00;71.72;;;-0.10;99.90;;;;;;5071720;28;20134;-66
2022/11/21 09:23:53;;;;;;;121.72;71.15;;;-0.10;99.90;;;;;;5065048;28;20056;-66
2022/11/21 09:26:18;;;;;;;32.20;14.93;;;0.00;99.90;;;;;;5068289;28;20040;-66
2022/11/21 09:28:44;;;;;;;121.50;70.00;;;0.20;99.90;;;;;;5064349;28;21070;-66
2022/11/21 09:31:10;;;;;;;118.78;72.00;;;0.20;99.90;;;;;;5064778;28;20048;-66
2022/11/21 09:33:35;;;;;;;114.78;68.00;;;0.30;99.90;;;;;;5068713;28;20048;-66
2022/11/21 09:36:02;;;;;;;114.20;69.57;;;0.40;99.90;;;;;;5066464;28;20055;-67
2022/11/21 09:38:31;;;;;;;111.63;71.65;;;0.40;99.90;;;;;;5073276;28;20052;-67
2022/11/21 09:41:50;;;;;;;107.53;67.10;;;0.40;99.90;;;;;;5073471;28;20043;-67
2022/11/21 09:44:31;;;;;;;99.78;65.47;;;0.50;99.90;;;;;;5070250;28;20111;-67
2022/11/21 09:47:15;;;;;;;106.82;66.15;;;0.60;99.90;;;;;;5074186;28;20040;-67
2022/11/21 09:49:44;;;;;;;121.15;68.18;;;0.60;99.90;;;;;;5085098;28;20052;-67
2022/11/21 09:52:11;;;;;;;;;;;0.70;99.90;;;;;;5082653;28;20062;-67
2022/11/21 09:54:49;;;;;;;98.05;60.78;;;0.70;99.90;;;;;;5059601;28;19932;-67
2022/11/21 09:57:23;;;;;;;100.45;61.67;;;0.70;99.90;;;;;;5063118;28;20098;-67
2022/11/21 09:59:50;;;;;;;100.65;62.08;;;0.80;99.90;;;;;;5069734;28;20048;-67
2022/11/21 10:02:18;;;;;;;104.47;66.18;;;0.80;99.90;;;;;;5059364;28;20145;-67
2022/11/21 10:04:45;;;;;;;109.25;68.05;;;0.80;99.90;;;;;;5067715;28;20060;-69
2022/11/21 10:07:27;;;;;;;46.45;18.65;;;0.90;99.90;;;;;;5065855;28;20086;-70
2022/11/21 10:10:16;;;;;;;104.15;61.30;;;1.00;99.90;;;;;;5071797;28;20671;-69
2022/11/21 10:12:56;;;;;;;99.72;62.13;;;1.00;99.90;;;;;;5071881;28;20123;-70
2022/11/21 10:15:55;;;;;;;103.10;61.83;;;1.00;99.90;;;;;;5070230;28;20155;-69
2022/11/21 10:19:11;;;;;;;106.13;63.72;;;1.10;99.90;;;;;;5070492;28;20036;-70
2022/11/21 10:21:39;;;;;;;99.43;60.30;;;1.10;99.90;;;;;;5039539;28;20592;-69
2022/11/21 10:24:21;;;;;;;104.53;61.17;;;1.10;99.90;;;;;;5059276;28;20090;-69
2022/11/21 10:26:58;;;;;;;88.60;58.75;;;1.10;99.90;;;;;;5040370;28;20055;-69
2022/11/21 10:29:49;;;;;;;103.68;65.13;;;1.10;99.90;;;;;;5067624;28;20107;-69
2022/11/21 10:32:37;;;;;;;38.17;18.10;;;1.20;99.90;;;;;;5056493;28;20045;-69
2022/11/21 10:35:14;;;;;;;;;;;1.20;99.90;;;;;;5066106;28;20067;-69
2022/11/21 10:37:46;;;;;;;108.28;63.85;;;1.20;99.90;;;;;;5068399;28;19920;-69
2022/11/21 10:40:28;;;;;;;96.97;62.47;;;1.20;99.90;;;;;;5068624;28;20045;-68
2022/11/21 10:42:56;;;;;;;101.72;63.20;;;1.30;99.90;;;;;;5069533;28;20564;-69
2022/11/21 10:45:23;;;;;;;33.28;14.93;;;1.30;99.90;;;;;;5065620;28;20044;-69
2022/11/21 10:47:51;;;;;;;109.50;65.43;;;1.40;99.90;;;;;;5064885;28;20053;-68
2022/11/21 10:50:25;;;;;;;96.70;62.30;;;1.40;99.90;;;;;;5063120;28;20044;-67
2022/11/21 10:56:04;;;;;;;101.85;61.53;;;1.40;99.90;;;;;;5076205;28;20052;-68
2022/11/21 10:58:42;;;;;;;105.72;62.53;;;1.50;99.90;;;;;;5063775;28;20190;-68
2022/11/21 11:01:29;;;;;;;112.05;66.85;;;1.50;99.90;;;;;;5066527;28;20055;-68
2022/11/21 11:04:12;;;;;;;102.53;61.95;;;1.60;99.90;;;;;;5049010;28;20120;-68
2022/11/21 11:06:43;;;;;;;103.63;63.47;;;1.70;99.90;;;;;;5062569;28;20102;-69
2022/11/21 11:09:30;;;;;;;112.78;68.75;;;1.70;99.90;;;;;;5056663;28;20045;-69
2022/11/21 11:12:15;;;;;;;106.55;65.72;;;1.80;99.90;;;;;;5061603;28;20048;-69
2022/11/21 11:14:53;;;;;;;100.22;63.28;;;1.90;99.90;;;;;;5075289;28;20055;-70
2022/11/21 11:17:30;;;;;;;96.05;60.63;;;2.00;99.90;;;;;;5065931;28;20040;-70
2022/11/21 11:20:06;;;;;;;110.68;64.30;;;2.00;99.90;;;;;;5065432;28;20051;-71
2022/11/21 11:22:32;;;;;;;106.53;61.00;;;2.10;99.90;;;;;;5065342;28;20154;-72
2022/11/21 11:24:57;;;;;;;116.30;63.20;;;2.20;99.90;;;;;;5074539;28;20106;-72
2022/11/21 11:27:28;;;;;;;96.65;57.97;;;2.30;99.90;;;;;;5063775;28;20417;-71
2022/11/21 11:29:53;;;;;;;103.28;61.35;;;2.30;99.90;;;;;;5070635;28;20155;-71
2022/11/21 11:32:20;;;;;;;98.45;57.30;;;2.40;99.90;;;;;;5065045;28;20128;-71
2022/11/21 11:35:01;;;;;;;95.88;57.90;;;2.40;99.90;;;;;;5066727;28;20508;-71
2022/11/21 11:37:45;;;;;;;85.32;54.50;;;2.40;99.90;;;;;;5070086;28;20135;-71
2022/11/21 11:40:37;;;;;;;102.88;57.05;;;2.50;99.90;;;;;;5065894;28;20048;-71
2022/11/21 11:48:52;;;;;;;25.75;11.77;;;2.70;99.90;;;;;;5062138;28;20143;-71
2022/11/21 11:51:23;;;;;;;78.43;46.67;;;2.70;99.90;;;;;;5072800;28;20682;-71
2022/11/21 11:54:06;;;;;;;87.50;46.50;;;2.80;99.90;;;;;;5061454;28;20397;-72
2022/11/21 11:56:37;;;;;;;78.60;45.65;;;2.80;99.90;;;;;;5056319;28;20653;-71
2022/11/21 11:59:13;;;;;;;75.05;43.78;;;2.90;99.90;;;;;;5069916;28;20053;-71
2022/11/21 12:02:06;;;;;;;71.80;43.65;;;2.90;99.90;;;;;;5057948;28;20091;-71
2022/11/21 12:04:39;;;;;;;24.63;10.98;;;2.90;99.90;;;;;;5071147;28;20055;-71
2022/11/21 12:07:24;;;;;;;68.13;40.83;;;2.90;99.90;;;;;;5075015;28;20052;-71
2022/11/21 12:10:06;;;;;;;61.78;40.88;;;2.90;99.90;;;;;;5072863;28;20711;-71
2022/11/21 12:13:13;;;;;;;65.30;39.50;;;3.00;99.90;;;;;;5070387;28;20053;-71
2022/11/21 12:15:49;;;;;;;64.40;39.70;;;3.00;99.90;;;;;;5047257;28;20060;-70
2022/11/21 12:18:18;;;;;;;60.83;39.15;;;3.00;99.90;;;;;;5046631;28;20291;-71
2022/11/21 12:21:01;;;;;;;65.63;43.03;;;3.00;99.90;;;;;;5055691;28;20056;-71
2022/11/21 12:23:30;;;;;;;60.78;39.55;;;3.00;99.90;;;;;;5065288;28;20056;-72
2022/11/21 12:25:59;;;;;;;61.92;40.88;;;3.10;99.90;;;;;;5064385;28;20037;-71
2022/11/21 12:29:03;;;;;;;59.65;35.63;;;3.10;99.90;;;;;;5073251;28;20055;-71
2022/11/21 12:31:43;;;;;;;55.30;36.22;;;3.10;99.90;;;;;;5071487;28;20853;-72
2022/11/21 12:34:20;;;;;;;50.90;33.88;;;3.20;99.90;;;;;;5071232;28;20051;-71
2022/11/21 12:37:14;;;;;;;52.80;34.05;;;3.20;99.90;;;;;;5061243;28;20055;-71
2022/11/21 12:39:45;;;;;;;52.80;32.45;;;3.20;99.90;;;;;;5068792;28;20087;-70
2022/11/21 12:42:48;;;;;;;52.00;34.42;;;3.20;99.90;;;;;;5062972;28;20074;-71
2022/11/21 12:45:27;;;;;;;29.85;14.43;;;3.20;99.90;;;;;;5076080;28;20051;-71
2022/11/21 12:54:30;;;;;;;53.63;35.05;;;3.20;99.90;;;;;;5058311;28;20554;-70
2022/11/21 12:57:12;;;;;;;54.92;34.72;;;3.20;99.90;;;;;;5065793;28;20097;-70
2022/11/21 13:00:04;;;;;;;54.10;35.83;;;3.20;99.90;;;;;;5082680;28;20054;-70
2022/11/21 13:03:01;;;;;;;59.70;37.72;;;3.20;99.90;;;;;;5068067;28;20087;-70
2022/11/21 13:05:31;;;;;;;55.17;34.95;;;3.20;99.90;;;;;;5054884;28;20074;-70
2022/11/21 13:08:07;;;;;;;57.08;38.88;;;3.30;99.90;;;;;;5068816;28;20037;-70
2022/11/21 13:10:33;;;;;;;61.50;37.42;;;3.30;99.90;;;;;;5056724;28;20054;-70